createdAt,value
2019-03-08T00:01:39.897Z,2.47
2019-03-08T00:04:12.739Z,3.00
2019-03-08T00:06:43.104Z,2.33
2019-03-08T00:09:13.175Z,2.63
2019-03-08T00:11:44.885Z,2.10
2019-03-08T00:14:15.894Z,1.83
2019-03-08T00:16:46.666Z,2.20
2019-03-08T00:19:19.588Z,2.80
2019-03-08T00:21:50.248Z,2.13
2019-03-08T00:24:20.380Z,2.10
2019-03-08T00:26:50.539Z,2.17
2019-03-08T00:29:20.745Z,2.90
2019-03-08T00:31:51.166Z,2.23
2019-03-08T00:34:23.110Z,2.30
2019-03-08T00:36:55.412Z,2.90
2019-03-08T00:39:26.355Z,3.00
2019-03-08T00:41:56.964Z,2.80
2019-03-08T00:44:27.225Z,3.17
2019-03-08T00:46:57.351Z,2.70
2019-03-08T00:49:28.011Z,3.10
2019-03-08T00:51:57.985Z,3.30
2019-03-08T00:54:28.286Z,2.70
2019-03-08T00:56:58.369Z,3.73
2019-03-08T00:59:28.635Z,3.60
2019-03-08T01:01:58.758Z,3.80
2019-03-08T01:04:28.874Z,3.90
2019-03-08T01:06:59.157Z,3.63
2019-03-08T01:09:29.484Z,3.63
2019-03-08T01:11:59.569Z,4.20
2019-03-08T01:14:29.646Z,3.73
2019-03-08T01:17:00.148Z,3.70
2019-03-08T01:19:30.320Z,3.83
2019-03-08T01:22:00.790Z,3.97
2019-03-08T01:24:32.890Z,4.30
2019-03-08T01:27:02.957Z,3.90
2019-03-08T01:29:35.190Z,3.90
2019-03-08T01:32:05.573Z,4.07
2019-03-08T01:34:35.796Z,4.60
2019-03-08T01:37:06.106Z,4.40
2019-03-08T01:39:41.869Z,3.80
2019-03-08T01:42:13.380Z,4.27
2019-03-08T01:44:43.811Z,4.27
2019-03-08T01:47:13.985Z,4.70
2019-03-08T01:49:44.125Z,4.10
2019-03-08T01:52:14.360Z,4.00
2019-03-08T01:54:44.547Z,4.10
2019-03-08T01:57:14.599Z,3.80
2019-03-08T01:59:44.735Z,3.90
2019-03-08T02:02:14.936Z,3.60
2019-03-08T02:04:45.029Z,4.77
2019-03-08T02:07:15.110Z,3.87
2019-03-08T02:09:45.529Z,3.43
2019-03-08T02:12:15.754Z,3.40
2019-03-08T02:14:45.855Z,4.23
2019-03-08T02:17:19.158Z,3.43
2019-03-08T02:19:50.156Z,3.80
2019-03-08T02:22:23.646Z,3.13
2019-03-08T02:24:54.214Z,3.97
2019-03-08T02:27:24.297Z,4.10
2019-03-08T02:29:54.578Z,3.33
2019-03-08T02:32:24.453Z,3.90
2019-03-08T02:34:54.752Z,3.80
2019-03-08T02:37:25.521Z,3.20
2019-03-08T02:39:56.331Z,3.50
2019-03-08T02:42:26.729Z,3.60
2019-03-08T02:44:56.847Z,3.20
2019-03-08T02:47:27.129Z,3.37
2019-03-08T02:49:57.207Z,3.10
2019-03-08T02:52:27.196Z,3.63
2019-03-08T02:54:57.116Z,3.00
2019-03-08T02:57:28.522Z,3.00
2019-03-08T02:59:58.811Z,3.40
2019-03-08T03:02:29.380Z,3.70
2019-03-08T03:05:01.614Z,3.60
2019-03-08T03:07:31.735Z,3.80
2019-03-08T03:10:01.978Z,3.67
2019-03-08T03:12:32.074Z,3.63
2019-03-08T03:15:02.223Z,3.57
2019-03-08T03:17:32.199Z,3.27
2019-03-08T03:20:04.872Z,4.10
2019-03-08T03:22:39.047Z,3.73
2019-03-08T03:25:09.310Z,3.93
2019-03-08T03:27:44.915Z,4.10
2019-03-08T03:30:15.410Z,3.90
2019-03-08T03:32:45.960Z,4.77
2019-03-08T03:35:16.084Z,4.40
2019-03-08T03:37:46.351Z,4.20
2019-03-08T03:40:16.807Z,4.20
2019-03-08T03:42:47.404Z,4.70
2019-03-08T03:45:17.798Z,4.00
2019-03-08T03:47:48.422Z,4.03
2019-03-08T03:50:18.920Z,4.03
2019-03-08T03:52:49.108Z,3.77
2019-03-08T03:55:19.332Z,3.80
2019-03-08T03:57:49.811Z,3.60
2019-03-08T04:00:20.109Z,4.13
2019-03-08T04:02:50.530Z,3.87
2019-03-08T04:05:20.724Z,3.07
2019-03-08T04:07:50.807Z,3.87
2019-03-08T04:10:21.491Z,4.53
2019-03-08T04:12:54.660Z,4.13
2019-03-08T04:15:26.302Z,2.80
2019-03-08T04:17:56.729Z,3.57
2019-03-08T04:20:26.831Z,3.60
2019-03-08T04:22:57.446Z,2.40
2019-03-08T04:25:27.623Z,2.50
2019-03-08T04:27:57.900Z,2.40
2019-03-08T04:30:28.143Z,2.53
2019-03-08T04:32:58.146Z,2.63
2019-03-08T04:35:28.241Z,2.37
2019-03-08T04:38:02.274Z,2.10
2019-03-08T04:40:34.221Z,2.10
2019-03-08T04:43:04.345Z,2.30
2019-03-08T04:45:34.454Z,2.13
2019-03-08T04:48:05.121Z,2.00
2019-03-08T04:50:36.961Z,1.83
2019-03-08T04:53:11.160Z,1.67
2019-03-08T04:55:41.464Z,1.97
2019-03-08T04:58:11.770Z,1.80
2019-03-08T05:00:44.614Z,1.90
2019-03-08T05:03:16.419Z,1.60
2019-03-08T05:05:47.080Z,1.63
2019-03-08T05:08:17.352Z,1.90
2019-03-08T05:10:47.463Z,1.90
2019-03-08T05:13:17.794Z,1.80
2019-03-08T05:15:50.602Z,1.67
2019-03-08T05:18:20.811Z,1.63
2019-03-08T05:20:50.736Z,1.53
2019-03-08T05:23:20.928Z,1.60
2019-03-08T05:25:51.174Z,2.00
2019-03-08T05:28:21.435Z,1.50
2019-03-08T05:30:51.787Z,1.00
2019-03-08T05:33:22.015Z,0.80
2019-03-08T05:35:52.191Z,1.20
2019-03-08T05:38:22.360Z,1.00
2019-03-08T05:40:52.389Z,1.00
2019-03-08T05:43:22.515Z,0.53
2019-03-08T05:45:56.909Z,0.60
2019-03-08T05:48:27.172Z,1.03
2019-03-08T05:50:57.168Z,0.83
2019-03-08T05:53:28.143Z,0.70
2019-03-08T05:55:58.169Z,0.73
2019-03-08T05:58:28.782Z,0.80
2019-03-08T06:00:59.226Z,0.70
2019-03-08T06:03:30.110Z,1.43
2019-03-08T06:06:00.248Z,1.00
2019-03-08T06:08:30.883Z,1.00
2019-03-08T06:11:01.530Z,1.00
2019-03-08T06:13:34.473Z,1.00
2019-03-08T06:16:07.760Z,1.10
2019-03-08T06:18:47.207Z,1.10
2019-03-08T06:21:17.641Z,1.20
2019-03-08T06:23:52.942Z,1.30
2019-03-08T06:26:25.350Z,1.27
2019-03-08T06:28:58.448Z,1.33
2019-03-08T06:31:28.942Z,0.90
2019-03-08T06:34:10.333Z,0.77
2019-03-08T06:36:41.971Z,1.43
2019-03-08T06:39:12.479Z,1.63
2019-03-08T06:41:48.928Z,1.83
2019-03-08T06:44:19.532Z,1.60
2019-03-08T06:46:50.228Z,2.20
2019-03-08T06:49:20.510Z,2.73
2019-03-08T06:51:52.250Z,3.47
2019-03-08T06:54:22.393Z,2.13
2019-03-08T06:56:53.833Z,2.50
2019-03-08T06:59:50.492Z,2.60
2019-03-08T07:02:22.905Z,2.27
2019-03-08T07:04:55.012Z,2.77
2019-03-08T07:07:47.120Z,3.43
2019-03-08T07:10:17.489Z,3.33
2019-03-08T07:12:48.850Z,4.00
2019-03-08T07:15:19.528Z,4.50
2019-03-08T07:17:50.006Z,3.87
2019-03-08T07:20:37.885Z,3.97
2019-03-08T07:23:14.725Z,3.63
2019-03-08T07:25:55.718Z,3.70
2019-03-08T07:28:50.675Z,3.10
2019-03-08T07:31:29.905Z,4.40
2019-03-08T07:34:29.694Z,3.83
2019-03-08T07:37:37.345Z,5.77
2019-03-08T07:40:30.413Z,4.63
2019-03-08T07:43:13.849Z,5.30
2019-03-08T07:46:00.912Z,5.33
2019-03-08T07:48:38.364Z,5.23
2019-03-08T07:51:45.908Z,4.03
2019-03-08T07:54:31.849Z,4.27
2019-03-08T07:57:08.705Z,4.73
2019-03-08T07:59:55.998Z,5.13
2019-03-08T08:02:52.339Z,4.50
2019-03-08T08:05:47.384Z,4.77
2019-03-08T08:08:40.034Z,5.03
2019-03-08T08:11:24.060Z,4.60
2019-03-08T08:14:24.240Z,4.90
2019-03-08T08:17:02.675Z,5.33
2019-03-08T08:19:45.945Z,6.87
2019-03-08T08:22:28.449Z,4.30
2019-03-08T08:25:18.435Z,4.20
2019-03-08T08:28:13.767Z,4.13
2019-03-08T08:31:09.753Z,4.87
2019-03-08T08:34:14.062Z,5.10
2019-03-08T08:37:24.091Z,7.03
2019-03-08T08:40:32.673Z,3.07
2019-03-08T08:43:30.422Z,4.50
2019-03-08T08:46:36.121Z,4.80
2019-03-08T08:49:43.343Z,3.90
2019-03-08T08:52:32.515Z,5.60
2019-03-08T08:55:14.411Z,4.23
2019-03-08T08:58:04.591Z,5.43
2019-03-08T09:00:52.891Z,3.73
2019-03-08T09:03:51.304Z,5.90
2019-03-08T09:06:48.587Z,4.07
2019-03-08T09:10:08.898Z,4.57
2019-03-08T09:12:58.496Z,4.70
2019-03-08T09:15:35.311Z,4.27
2019-03-08T09:18:30.784Z,4.20
2019-03-08T09:21:21.722Z,3.80
2019-03-08T09:24:23.376Z,5.67
2019-03-08T09:27:22.763Z,4.73
2019-03-08T09:30:10.361Z,3.70
2019-03-08T09:33:04.573Z,4.07
2019-03-08T09:36:04.342Z,3.50
2019-03-08T09:39:30.033Z,3.17
2019-03-08T09:42:39.168Z,5.10
2019-03-08T09:46:08.099Z,4.23
2019-03-08T09:48:49.746Z,3.07
2019-03-08T09:51:37.987Z,3.00
2019-03-08T09:54:19.349Z,3.30
2019-03-08T09:57:02.578Z,3.23
2019-03-08T09:59:55.450Z,2.67
2019-03-08T10:02:43.216Z,3.53
2019-03-08T10:05:34.979Z,3.27
2019-03-08T10:08:29.403Z,3.30
2019-03-08T10:11:29.149Z,4.90
2019-03-08T10:14:18.789Z,4.27
2019-03-08T10:16:57.583Z,3.37
2019-03-08T10:19:45.646Z,3.60
2019-03-08T10:22:30.789Z,3.43
2019-03-08T10:25:25.697Z,3.60
2019-03-08T10:28:23.298Z,2.77
2019-03-08T10:31:15.757Z,3.90
2019-03-08T10:34:04.189Z,2.93
2019-03-08T10:36:58.744Z,3.00
2019-03-08T10:39:48.430Z,3.93
2019-03-08T10:42:36.671Z,3.47
2019-03-08T10:45:25.260Z,3.00
2019-03-08T10:48:16.541Z,3.90
2019-03-08T10:50:56.962Z,3.90
2019-03-08T10:53:33.072Z,3.40
2019-03-08T10:56:21.392Z,3.17
2019-03-08T10:59:11.246Z,3.60
2019-03-08T11:01:52.724Z,3.73
2019-03-08T11:04:40.992Z,3.53
2019-03-08T11:07:25.908Z,2.47
2019-03-08T11:10:13.523Z,2.93
2019-03-08T11:13:03.461Z,2.40
2019-03-08T11:15:50.947Z,1.40
2019-03-08T11:18:35.422Z,2.67
2019-03-08T11:21:28.515Z,2.47
2019-03-08T11:24:38.969Z,2.80
2019-03-08T11:27:32.673Z,3.73
2019-03-08T11:30:26.427Z,2.90
2019-03-08T11:33:18.518Z,2.50
2019-03-08T11:35:58.459Z,3.00
2019-03-08T11:38:52.574Z,2.60
2019-03-08T11:41:32.533Z,3.07
2019-03-08T11:44:22.056Z,2.90
2019-03-08T11:47:00.544Z,2.53
2019-03-08T11:49:48.099Z,2.43
2019-03-08T11:52:36.301Z,2.50
2019-03-08T11:55:26.369Z,2.53
2019-03-08T11:58:05.703Z,3.00
2019-03-08T12:01:00.697Z,2.40
2019-03-08T12:03:48.736Z,3.00
2019-03-08T12:06:51.363Z,2.73
2019-03-08T12:09:28.913Z,2.17
2019-03-08T12:12:16.955Z,2.70
2019-03-08T12:15:04.938Z,1.93
2019-03-08T12:18:04.900Z,3.80
2019-03-08T12:20:56.928Z,3.80
2019-03-08T12:23:50.167Z,2.90
2019-03-08T12:26:39.862Z,3.00
2019-03-08T12:29:42.850Z,2.23
2019-03-08T12:32:31.636Z,2.80
2019-03-08T12:35:15.805Z,2.97
2019-03-08T12:37:56.976Z,3.47
2019-03-08T12:40:35.611Z,2.53
2019-03-08T12:43:29.148Z,3.87
2019-03-08T12:46:18.601Z,3.40
2019-03-08T12:49:07.999Z,3.20
2019-03-08T12:52:01.495Z,2.40
2019-03-08T12:54:56.960Z,2.50
2019-03-08T12:57:52.779Z,2.43
2019-03-08T13:00:55.492Z,3.17
2019-03-08T13:03:49.840Z,2.23
2019-03-08T13:06:30.211Z,3.23
2019-03-08T13:09:29.840Z,3.33
2019-03-08T13:12:02.680Z,2.90
2019-03-08T13:14:33.851Z,2.60
2019-03-08T13:17:05.591Z,2.50
2019-03-08T13:19:37.932Z,2.10
2019-03-08T13:22:08.910Z,2.50
2019-03-08T13:24:39.784Z,3.07
2019-03-08T13:27:10.285Z,4.43
2019-03-08T13:29:43.643Z,2.40
2019-03-08T13:32:17.792Z,2.60
2019-03-08T13:34:48.399Z,1.67
2019-03-08T13:37:19.277Z,2.17
2019-03-08T13:39:58.701Z,2.03
2019-03-08T13:42:31.798Z,2.43
2019-03-08T13:45:02.050Z,2.50
2019-03-08T13:47:38.267Z,2.00
2019-03-08T13:50:12.245Z,1.77
2019-03-08T13:52:44.350Z,2.30
2019-03-08T13:55:16.554Z,2.93
2019-03-08T13:57:47.088Z,2.13
2019-03-08T14:00:18.018Z,2.60
2019-03-08T14:02:52.487Z,2.10
2019-03-08T14:05:22.377Z,2.10
2019-03-08T14:07:55.214Z,2.20
2019-03-08T14:10:26.247Z,1.50
2019-03-08T14:13:07.982Z,2.30
2019-03-08T14:15:39.281Z,2.60
2019-03-08T14:18:10.458Z,2.33
2019-03-08T14:20:44.259Z,3.67
2019-03-08T14:23:18.681Z,2.37
2019-03-08T14:25:49.492Z,2.40
2019-03-08T14:28:20.577Z,2.40
2019-03-08T14:30:58.287Z,2.67
2019-03-08T14:33:38.198Z,2.67
2019-03-08T14:36:07.262Z,3.00
2019-03-08T14:38:49.010Z,3.80
2019-03-08T14:41:34.731Z,2.90
2019-03-08T14:44:36.422Z,2.77
2019-03-08T14:47:17.694Z,2.87
2019-03-08T14:49:51.352Z,2.37
2019-03-08T14:52:22.873Z,2.33
2019-03-08T14:54:55.783Z,2.27
2019-03-08T14:57:28.662Z,2.60
2019-03-08T15:00:09.934Z,2.23
2019-03-08T15:02:47.232Z,2.37
2019-03-08T15:05:15.499Z,2.47
2019-03-08T15:07:47.744Z,2.23
2019-03-08T15:10:19.563Z,2.37
2019-03-08T15:12:53.216Z,2.47
2019-03-08T15:15:26.929Z,3.00
2019-03-08T15:18:03.445Z,2.70
2019-03-08T15:20:48.860Z,2.30
2019-03-08T15:23:19.684Z,2.70
2019-03-08T15:25:50.961Z,1.80
2019-03-08T15:28:33.671Z,2.60
2019-03-08T15:31:21.304Z,2.83
2019-03-08T15:34:07.985Z,3.53
2019-03-08T15:36:45.699Z,2.27
2019-03-08T15:39:38.020Z,2.33
2019-03-08T15:42:11.273Z,2.40
2019-03-08T15:44:42.297Z,2.70
2019-03-08T15:47:23.616Z,2.57
2019-03-08T15:50:04.528Z,3.23
2019-03-08T15:52:35.649Z,3.10
2019-03-08T15:55:07.014Z,3.03
2019-03-08T15:57:40.166Z,1.83
2019-03-08T16:00:15.106Z,1.90
2019-03-08T16:02:46.385Z,2.37
2019-03-08T16:05:23.895Z,1.93
2019-03-08T16:07:57.835Z,2.13
2019-03-08T16:10:31.289Z,2.20
2019-03-08T16:13:02.764Z,2.10
2019-03-08T16:15:44.261Z,2.40
2019-03-08T16:18:25.173Z,1.90
2019-03-08T16:20:59.380Z,2.17
2019-03-08T16:23:30.284Z,2.30
2019-03-08T16:26:04.489Z,2.23
2019-03-08T16:28:53.859Z,2.03
2019-03-08T16:31:32.189Z,2.10
2019-03-08T16:34:02.319Z,2.20
2019-03-08T16:36:38.246Z,1.53
2019-03-08T16:39:27.789Z,1.73
2019-03-08T16:42:26.545Z,1.87
2019-03-08T16:45:19.272Z,2.70
2019-03-08T16:48:07.654Z,1.70
2019-03-08T16:51:08.898Z,2.17
2019-03-08T16:53:55.500Z,1.90
2019-03-08T16:56:52.869Z,1.80
2019-03-08T16:59:41.722Z,1.80
2019-03-08T17:02:38.522Z,3.07
2019-03-08T17:05:33.218Z,1.77
2019-03-08T17:08:29.926Z,2.27
2019-03-08T17:11:11.678Z,2.00
2019-03-08T17:13:49.092Z,3.20
2019-03-08T17:16:29.366Z,2.90
2019-03-08T17:19:23.571Z,3.20
2019-03-08T17:22:13.085Z,2.20
2019-03-08T17:25:11.593Z,1.77
2019-03-08T17:28:16.980Z,1.90
2019-03-08T17:30:58.368Z,2.43
2019-03-08T17:33:41.263Z,1.80
2019-03-08T17:36:38.491Z,2.10
2019-03-08T17:39:27.759Z,1.90
2019-03-08T17:42:36.163Z,2.30
2019-03-08T17:45:22.716Z,2.80
2019-03-08T17:48:11.243Z,2.97
2019-03-08T17:51:08.276Z,2.53
2019-03-08T17:54:26.358Z,2.33
2019-03-08T17:57:27.448Z,13.30
2019-03-08T18:00:16.972Z,3.13
2019-03-08T18:03:05.419Z,2.57
2019-03-08T18:05:49.643Z,2.27
2019-03-08T18:08:36.049Z,2.27
2019-03-08T18:11:40.719Z,2.13
2019-03-08T18:14:36.694Z,2.27
2019-03-08T18:17:25.882Z,2.33
2019-03-08T18:20:23.649Z,2.60
2019-03-08T18:23:23.768Z,4.20
2019-03-08T18:26:11.941Z,2.80
2019-03-08T18:29:16.358Z,3.27
2019-03-08T18:32:15.145Z,2.70
2019-03-08T18:35:03.055Z,2.80
2019-03-08T18:37:41.307Z,3.03
2019-03-08T18:40:24.021Z,2.40
2019-03-08T18:43:15.055Z,2.70
2019-03-08T18:46:04.823Z,2.70
2019-03-08T18:48:44.348Z,3.47
2019-03-08T18:51:33.953Z,3.43
2019-03-08T18:54:10.915Z,2.00
2019-03-08T18:56:52.169Z,2.93
2019-03-08T18:59:30.905Z,2.67
2019-03-08T19:02:25.033Z,2.87
2019-03-08T19:05:28.705Z,2.20
2019-03-08T19:08:18.020Z,3.30
2019-03-08T19:11:02.467Z,2.50
2019-03-08T19:14:06.984Z,3.33
2019-03-08T19:16:56.275Z,3.40
2019-03-08T19:19:49.286Z,3.00
2019-03-08T19:22:32.477Z,2.60
2019-03-08T19:25:17.433Z,4.13
2019-03-08T19:27:55.081Z,2.40
2019-03-08T19:30:54.599Z,3.50
2019-03-08T19:33:32.062Z,3.20
2019-03-08T19:36:26.197Z,3.40
2019-03-08T19:39:30.635Z,3.13
2019-03-08T19:42:22.407Z,3.67
2019-03-08T19:45:01.132Z,4.10
2019-03-08T19:47:53.177Z,3.20
2019-03-08T19:50:42.999Z,2.57
2019-03-08T19:53:41.268Z,3.10
2019-03-08T19:56:32.644Z,2.83
2019-03-08T19:59:21.980Z,3.60
2019-03-08T20:02:09.678Z,2.80
2019-03-08T20:05:07.742Z,4.50
2019-03-08T20:08:09.036Z,2.70
2019-03-08T20:11:09.672Z,3.10
2019-03-08T20:14:07.689Z,2.50
2019-03-08T20:16:55.703Z,2.40
2019-03-08T20:19:39.480Z,3.03
2019-03-08T20:22:28.736Z,5.60
2019-03-08T20:25:12.134Z,3.57
2019-03-08T20:27:51.219Z,2.70
2019-03-08T20:30:42.195Z,3.23
2019-03-08T20:33:29.921Z,2.87
2019-03-08T20:36:22.256Z,3.07
2019-03-08T20:39:06.263Z,3.57
2019-03-08T20:42:01.866Z,3.17
2019-03-08T20:44:49.843Z,2.40
2019-03-08T20:47:23.567Z,2.20
2019-03-08T20:49:53.541Z,2.70
2019-03-08T20:52:24.279Z,2.80
2019-03-08T20:54:54.545Z,2.87
2019-03-08T20:57:24.871Z,2.60
2019-03-08T20:59:55.033Z,2.67
2019-03-08T21:02:25.424Z,3.50
2019-03-08T21:04:55.600Z,1.90
2019-03-08T21:07:25.665Z,3.00
2019-03-08T21:09:55.665Z,3.03
2019-03-08T21:12:25.694Z,2.67
2019-03-08T21:14:56.773Z,2.80
2019-03-08T21:17:26.721Z,3.13
2019-03-08T21:19:56.737Z,2.37
2019-03-08T21:22:26.803Z,3.17
2019-03-08T21:24:56.787Z,2.23
2019-03-08T21:27:26.752Z,4.27
2019-03-08T21:29:56.793Z,4.13
2019-03-08T21:32:28.271Z,2.60
2019-03-08T21:34:58.812Z,2.53
2019-03-08T21:37:30.090Z,2.80
2019-03-08T21:40:00.045Z,2.20
2019-03-08T21:42:31.338Z,2.53
2019-03-08T21:45:02.027Z,2.87
2019-03-08T21:47:33.370Z,2.57
2019-03-08T21:50:03.026Z,2.40
2019-03-08T21:52:33.164Z,2.80
2019-03-08T21:55:03.908Z,2.80
2019-03-08T21:57:34.980Z,2.80
2019-03-08T22:00:10.304Z,2.33
2019-03-08T22:02:40.462Z,2.40
2019-03-08T22:05:11.325Z,3.10
2019-03-08T22:07:41.036Z,2.70
2019-03-08T22:10:21.506Z,3.63
2019-03-08T22:12:51.468Z,3.70
2019-03-08T22:15:21.483Z,3.10
2019-03-08T22:17:51.484Z,3.53
2019-03-08T22:20:22.085Z,2.93
2019-03-08T22:22:52.470Z,2.90
2019-03-08T22:25:24.244Z,2.57
2019-03-08T22:27:56.135Z,2.63
2019-03-08T22:30:31.543Z,3.97
2019-03-08T22:33:05.238Z,2.90
2019-03-08T22:35:35.697Z,2.67
2019-03-08T22:38:09.505Z,2.90
2019-03-08T22:40:39.597Z,3.00
2019-03-08T22:43:10.153Z,2.90
2019-03-08T22:45:40.277Z,3.00
2019-03-08T22:48:14.623Z,3.20
2019-03-08T22:50:44.668Z,4.50
2019-03-08T22:53:15.094Z,2.60
2019-03-08T22:56:06.899Z,3.33
2019-03-08T22:58:38.314Z,2.87
2019-03-08T23:01:11.597Z,2.40
2019-03-08T23:03:41.779Z,2.70
2019-03-08T23:06:11.504Z,3.10
2019-03-08T23:08:41.197Z,2.83
2019-03-08T23:11:11.214Z,3.50
2019-03-08T23:13:40.995Z,2.93
2019-03-08T23:16:11.455Z,3.60
2019-03-08T23:18:42.949Z,2.60
2019-03-08T23:21:12.973Z,3.13
2019-03-08T23:23:43.006Z,3.00
2019-03-08T23:26:12.837Z,4.30
2019-03-08T23:28:49.318Z,3.50
2019-03-08T23:31:47.830Z,2.97
2019-03-08T23:34:17.973Z,3.10
2019-03-08T23:36:48.401Z,4.43
2019-03-08T23:39:18.400Z,4.30
2019-03-08T23:41:48.431Z,4.37
2019-03-08T23:44:18.351Z,4.40
2019-03-08T23:46:48.213Z,4.13
2019-03-08T23:49:18.125Z,4.10
2019-03-08T23:51:47.697Z,5.50
2019-03-08T23:54:17.425Z,5.00
2019-03-08T23:56:47.125Z,6.47
2019-03-08T23:59:16.825Z,5.47
